Time;durP1;ratioP1;P1;durP2;ratioP2;P2;SDS_P1;SDS_P2;PMS_P1;PMS_P2;Temp;Humidity;BMP_temperature;BMP_pressure;BME280_temperature;BME280_humidity;BME280_pressure;Samples;Min_cycle;Max_cycle;Signal;HPM_P1;HPM_P2
2023/10/21 00:29:39;;;;;;;1.07;0.50;;;14.30;99.90;;;;;;5040969;23;20050;-89
2023/10/21 00:32:05;;;;;;;1.73;0.60;;;14.40;99.90;;;;;;5039123;28;20277;-90
2023/10/21 00:34:31;;;;;;;0.43;0.30;;;14.40;99.90;;;;;;5041212;28;20037;-90
2023/10/21 00:36:57;;;;;;;0.80;0.25;;;;;;;;;;5040828;28;20041;-89
2023/10/21 00:39:24;;;;;;;1.70;0.35;;;;;;;;;;5034620;28;20089;-90
2023/10/21 00:41:50;;;;;;;0.20;0.15;;;;;;;;;;5040421;28;20589;-90
2023/10/21 00:44:16;;;;;;;1.27;0.40;;;;;;;;;;5030644;28;20041;-90
2023/10/21 00:46:42;;;;;;;0.30;0.22;;;14.30;99.90;;;;;;5032786;28;20029;-89
2023/10/21 00:49:08;;;;;;;0.45;0.22;;;;;;;;;;5037642;28;20025;-90
2023/10/21 00:51:35;;;;;;;0.38;0.30;;;14.30;99.90;;;;;;5045178;28;20037;-90
2023/10/21 00:54:01;;;;;;;1.30;0.30;;;;;;;;;;5043682;28;20033;-86
2023/10/21 00:56:27;;;;;;;3.17;0.50;;;;;;;;;;5043356;28;20029;-90
2023/10/21 00:58:53;;;;;;;1.48;0.45;;;14.30;99.90;;;;;;5045048;28;20082;-89
2023/10/21 01:01:19;;;;;;;0.57;0.40;;;15.40;99.90;;;;;;5043563;28;20382;-90
2023/10/21 01:03:45;;;;;;;0.63;0.50;;;;;;;;;;5045493;28;20017;-90
2023/10/21 01:06:11;;;;;;;0.52;0.40;;;;;;;;;;5048653;28;20025;-90
2023/10/21 01:08:44;;;;;;;1.20;0.50;;;14.20;99.90;;;;;;5038817;28;20088;-88
2023/10/21 01:11:11;;;;;;;1.33;0.30;;;14.20;99.90;;;;;;5044344;28;20056;-91
2023/10/21 01:13:37;;;;;;;0.38;0.30;;;;;;;;;;5044274;28;20045;-89
2023/10/21 01:16:03;;;;;;;1.40;0.40;;;;;;;;;;5040675;28;20048;-91
2023/10/21 01:18:33;;;;;;;0.50;0.50;;;14.20;99.90;;;;;;5043321;28;20033;-91
2023/10/21 01:21:02;;;;;;;1.55;0.60;;;14.10;99.90;;;;;;5046033;28;20032;-90
2023/10/21 01:23:29;;;;;;;1.38;0.60;;;;;;;;;;5035216;28;20034;-91
2023/10/21 01:25:55;;;;;;;1.15;0.52;;;;;;;;;;5036219;28;20037;-90
2023/10/21 01:28:21;;;;;;;1.08;0.57;;;;;;;;;;5039676;28;20042;-89
2023/10/21 01:30:47;;;;;;;1.38;0.50;;;;;;;;;;5039947;28;20040;-89
2023/10/21 01:33:13;;;;;;;0.68;0.60;;;14.10;99.90;;;;;;5039331;28;20034;-89
2023/10/21 01:35:39;;;;;;;2.28;0.80;;;15.70;99.90;;;;;;5041573;28;20053;-90
2023/10/21 01:38:04;;;;;;;1.40;0.50;;;14.80;99.90;;;;;;5035119;28;20039;-90
2023/10/21 01:40:30;;;;;;;1.13;0.63;;;16.40;99.90;;;;;;5038566;28;20029;-88
2023/10/21 01:42:56;;;;;;;1.05;0.60;;;16.40;99.90;;;;;;5032601;28;20117;-89
2023/10/21 01:45:23;;;;;;;1.27;0.70;;;16.40;99.90;;;;;;5035897;28;20026;-88
2023/10/21 01:47:48;;;;;;;1.17;0.50;;;16.60;99.90;;;;;;5041336;28;20044;-90
2023/10/21 01:50:14;;;;;;;0.88;0.52;;;14.10;99.90;;;;;;5040100;28;20025;-89
2023/10/21 01:52:40;;;;;;;1.45;0.70;;;14.00;99.90;;;;;;5042708;28;20045;-89
2023/10/21 01:55:08;;;;;;;2.45;0.70;;;14.00;99.90;;;;;;5038918;28;20109;-90
2023/10/21 01:57:34;;;;;;;2.78;0.70;;;14.10;99.90;;;;;;5049585;28;20081;-89
2023/10/21 02:00:01;;;;;;;1.20;0.68;;;14.20;99.90;;;;;;5043588;28;20029;-88
2023/10/21 02:02:27;;;;;;;2.88;0.60;;;15.80;99.90;;;;;;5043709;28;20326;-89
2023/10/21 02:04:52;;;;;;;2.38;0.65;;;15.00;99.90;;;;;;5041191;28;20053;-90
2023/10/21 02:07:19;;;;;;;1.67;0.80;;;13.60;99.90;;;;;;5041071;28;20026;-89
2023/10/21 02:09:45;;;;;;;2.70;1.10;;;15.80;99.90;;;;;;5032776;28;20017;-91
2023/10/21 02:12:11;;;;;;;1.10;0.65;;;14.80;99.90;;;;;;5039462;28;20029;-91
2023/10/21 02:14:37;;;;;;;1.48;0.80;;;14.10;99.90;;;;;;5041440;28;20025;-90
2023/10/21 02:17:02;;;;;;;2.92;0.70;;;15.20;99.90;;;;;;5037781;28;20487;-90
2023/10/21 02:19:28;;;;;;;1.23;0.57;;;15.00;99.90;;;;;;5044968;28;20026;-90
2023/10/21 02:21:54;;;;;;;0.65;0.50;;;14.00;99.90;;;;;;5037394;28;20033;-89
2023/10/21 02:24:20;;;;;;;1.75;0.60;;;14.00;99.90;;;;;;5035843;28;20032;-87
2023/10/21 02:26:45;;;;;;;2.35;0.52;;;14.10;99.90;;;;;;5037699;28;20029;-89
2023/10/21 02:29:11;;;;;;;1.45;0.70;;;14.10;99.90;;;;;;5037818;28;20041;-89
2023/10/21 02:31:37;;;;;;;1.33;0.60;;;15.10;99.90;;;;;;5042388;28;20029;-90
2023/10/21 02:34:03;;;;;;;1.90;0.70;;;14.40;99.90;;;;;;5038641;28;20022;-89
2023/10/21 02:36:29;;;;;;;2.05;0.63;;;14.10;99.90;;;;;;5042229;28;20057;-90
2023/10/21 02:38:54;;;;;;;1.92;0.77;;;14.10;99.90;;;;;;5037048;28;20412;-91
2023/10/21 02:41:21;;;;;;;0.75;0.60;;;15.00;99.90;;;;;;5038545;28;20034;-89
2023/10/21 02:43:48;;;;;;;4.90;0.82;;;;;;;;;;5040415;28;20034;-89
2023/10/21 02:46:14;;;;;;;1.00;0.82;;;;;;;;;;5039777;28;20049;-91
2023/10/21 02:48:40;;;;;;;0.75;0.70;;;14.10;99.90;;;;;;5039915;28;20059;-88
2023/10/21 02:51:12;;;;;;;1.85;0.60;;;14.20;99.90;;;;;;5033309;28;20037;-90
2023/10/21 02:53:39;;;;;;;1.90;0.60;;;14.20;99.90;;;;;;5037711;28;20125;-89
2023/10/21 02:56:06;;;;;;;1.58;0.90;;;16.00;99.90;;;;;;5038005;28;20025;-88
2023/10/21 02:58:32;;;;;;;1.02;0.70;;;14.10;99.90;;;;;;5048538;28;20018;-89
2023/10/21 03:01:02;;;;;;;3.90;0.93;;;15.00;99.90;;;;;;5031811;28;20036;-90
2023/10/21 03:03:28;;;;;;;3.17;0.85;;;14.20;99.90;;;;;;5047485;28;20033;-90
2023/10/21 03:05:53;;;;;;;1.95;0.80;;;14.80;99.90;;;;;;5036000;28;20037;-90
2023/10/21 03:08:19;;;;;;;2.28;1.20;;;14.10;99.90;;;;;;5038314;28;20045;-89
2023/10/21 03:10:45;;;;;;;2.40;0.80;;;14.60;99.90;;;;;;5036185;28;20870;-89
2023/10/21 03:13:10;;;;;;;2.03;0.70;;;14.20;99.90;;;;;;5034399;28;20026;-90
2023/10/21 03:15:36;;;;;;;2.78;1.00;;;15.10;99.90;;;;;;5025974;28;20042;-87
2023/10/21 03:18:02;;;;;;;2.28;0.80;;;15.10;99.90;;;;;;5046762;28;20013;-88
2023/10/21 03:20:32;;;;;;;3.13;1.00;;;14.20;99.90;;;;;;5049827;28;20089;-88
2023/10/21 03:22:57;;;;;;;4.45;1.00;;;14.10;99.90;;;;;;5051082;28;20022;-83
2023/10/21 03:25:23;;;;;;;2.90;1.00;;;14.70;99.90;;;;;;5048900;28;20071;-88
2023/10/21 03:27:48;;;;;;;3.08;1.00;;;14.90;99.90;;;;;;5045572;28;20025;-88
2023/10/21 03:30:14;;;;;;;7.00;1.35;;;14.10;99.90;;;;;;5047801;28;20021;-87
2023/10/21 03:32:40;;;;;;;1.67;0.80;;;14.10;99.90;;;;;;5044989;28;20119;-88
2023/10/21 03:35:06;;;;;;;2.53;0.82;;;14.60;99.90;;;;;;5038763;28;20036;-88
2023/10/21 03:37:34;;;;;;;1.48;0.88;;;14.10;99.90;;;;;;5037391;28;20062;-88
2023/10/21 03:39:59;;;;;;;1.55;0.80;;;14.10;99.90;;;;;;5035069;28;20021;-87
2023/10/21 03:42:26;;;;;;;1.67;0.80;;;15.70;99.90;;;;;;5027449;28;20056;-88
2023/10/21 03:44:51;;;;;;;1.35;0.88;;;14.10;99.90;;;;;;5016387;28;20024;-88
2023/10/21 03:47:17;;;;;;;1.58;0.90;;;14.10;99.90;;;;;;5030179;28;20052;-88
2023/10/21 03:49:43;;;;;;;2.13;1.00;;;14.10;99.90;;;;;;5032422;28;20101;-83
2023/10/21 03:52:08;;;;;;;2.42;0.80;;;14.20;99.90;;;;;;5032954;28;20053;-87
2023/10/21 03:54:34;;;;;;;1.30;0.77;;;14.10;99.90;;;;;;5029423;28;20034;-90
2023/10/21 03:57:00;;;;;;;1.25;0.70;;;15.40;99.90;;;;;;5046824;28;20089;-90
2023/10/21 03:59:28;;;;;;;1.02;0.70;;;14.10;99.90;;;;;;5034985;28;20068;-90
2023/10/21 04:01:57;;;;;;;1.13;0.75;;;15.20;99.90;;;;;;5039405;28;20149;-89
2023/10/21 04:04:23;;;;;;;1.25;0.80;;;14.00;99.90;;;;;;5042252;28;20022;-88
2023/10/21 04:06:49;;;;;;;0.93;0.80;;;14.80;99.90;;;;;;5033245;28;20033;-90
2023/10/21 04:09:15;;;;;;;1.05;0.73;;;14.00;99.90;;;;;;5033728;28;20088;-88
2023/10/21 04:11:42;;;;;;;0.70;0.60;;;15.30;99.90;;;;;;5036337;28;21725;-91
2023/10/21 04:14:10;;;;;;;2.00;0.75;;;15.10;99.90;;;;;;5035068;28;20122;-87
2023/10/21 04:16:36;;;;;;;1.23;0.73;;;14.00;99.90;;;;;;5032555;28;20029;-89
2023/10/21 04:19:02;;;;;;;1.05;0.80;;;;;;;;;;5033666;28;20113;-88
2023/10/21 04:21:27;;;;;;;1.60;0.80;;;13.90;99.90;;;;;;5031468;28;20034;-86
2023/10/21 04:23:53;;;;;;;1.90;0.77;;;13.90;99.90;;;;;;5035769;28;20036;-90
2023/10/21 04:26:18;;;;;;;1.50;0.95;;;14.60;99.90;;;;;;5037824;28;20056;-87
2023/10/21 04:28:44;;;;;;;1.42;1.02;;;15.10;99.90;;;;;;5035220;28;20043;-87
2023/10/21 04:31:10;;;;;;;2.20;1.10;;;;;;;;;;5029538;28;20127;-86
2023/10/21 04:33:36;;;;;;;1.95;1.23;;;13.90;99.90;;;;;;5035306;28;20499;-88
2023/10/21 04:36:01;;;;;;;1.45;1.10;;;13.80;99.90;;;;;;5032854;28;20029;-88
2023/10/21 04:38:27;;;;;;;2.05;1.13;;;13.70;99.90;;;;;;5033346;28;20026;-90
2023/10/21 04:40:54;;;;;;;1.52;1.10;;;;;;;;;;5029584;28;20029;-88
2023/10/21 04:43:20;;;;;;;3.00;1.15;;;13.80;99.90;;;;;;5032528;28;20068;-86
2023/10/21 04:45:46;;;;;;;1.65;0.93;;;;;;;;;;5032116;28;20041;-89
2023/10/21 04:48:11;;;;;;;1.20;0.93;;;13.80;99.90;;;;;;5031103;28;20049;-87
2023/10/21 04:50:37;;;;;;;0.60;0.60;;;14.90;99.90;;;;;;5034506;28;20048;-89
2023/10/21 04:53:03;;;;;;;1.50;0.82;;;13.80;99.90;;;;;;5031620;28;20057;-87
2023/10/21 04:55:28;;;;;;;2.22;0.90;;;15.40;99.90;;;;;;5031148;28;20025;-84
2023/10/21 04:57:54;;;;;;;1.88;0.95;;;;;;;;;;5037069;28;20554;-88
2023/10/21 05:00:20;;;;;;;1.50;0.80;;;13.70;99.90;;;;;;5033714;28;20030;-89
2023/10/21 05:02:46;;;;;;;1.52;0.80;;;;;;;;;;5034642;28;20029;-88
2023/10/21 05:05:12;;;;;;;1.17;0.68;;;13.60;99.90;;;;;;5033519;28;20061;-88
2023/10/21 05:07:38;;;;;;;2.03;0.80;;;;;;;;;;5035803;28;20110;-88
2023/10/21 05:10:04;;;;;;;0.57;0.50;;;14.90;99.90;;;;;;5029235;28;20489;-89
2023/10/21 05:12:30;;;;;;;1.40;0.50;;;;;;;;;;5035821;28;20029;-89
2023/10/21 05:14:56;;;;;;;2.28;0.60;;;;;;;;;;5037549;28;20033;-90
2023/10/21 05:17:22;;;;;;;3.30;0.52;;;13.80;99.90;;;;;;5032438;28;20032;-90
2023/10/21 05:19:48;;;;;;;1.42;0.50;;;14.30;99.90;;;;;;5035502;28;20688;-90
2023/10/21 05:22:14;;;;;;;4.10;0.70;;;;;;;;;;5036509;28;20029;-90
2023/10/21 05:24:39;;;;;;;3.47;0.60;;;13.70;99.90;;;;;;5031894;28;20048;-88
2023/10/21 05:27:05;;;;;;;1.23;0.60;;;13.90;99.90;;;;;;5029522;28;20026;-90
2023/10/21 05:29:31;;;;;;;1.90;0.40;;;;;;;;;;5035424;28;20041;-86
2023/10/21 05:31:57;;;;;;;1.80;0.60;;;;;;;;;;5031348;28;20051;-88
2023/10/21 05:34:23;;;;;;;0.43;0.43;;;;;;;;;;5025144;28;20029;-90
2023/10/21 05:36:49;;;;;;;2.03;0.57;;;;;;;;;;5031705;28;20033;-87
2023/10/21 05:39:15;;;;;;;2.33;0.63;;;;;;;;;;5028134;28;20050;-89
2023/10/21 05:41:42;;;;;;;1.13;0.30;;;;;;;;;;5032467;28;20029;-89
2023/10/21 05:44:08;;;;;;;2.25;0.60;;;;;;;;;;5036642;28;20021;-88
2023/10/21 05:46:34;;;;;;;2.83;0.55;;;13.60;99.90;;;;;;5025691;28;20096;-88
2023/10/21 05:49:00;;;;;;;2.13;0.43;;;;;;;;;;5035995;28;20056;-88
2023/10/21 05:51:27;;;;;;;0.80;0.40;;;;;;;;;;5037471;28;20037;-89
2023/10/21 05:53:53;;;;;;;2.35;0.77;;;;;;;;;;5035806;28;20511;-89
2023/10/21 05:56:21;;;;;;;1.05;0.57;;;13.50;99.90;;;;;;5039747;28;20025;-89
2023/10/21 05:58:47;;;;;;;2.33;0.90;;;;;;;;;;5031731;28;20045;-89
2023/10/21 06:01:13;;;;;;;2.30;0.70;;;;;;;;;;5034680;28;20036;-87
2023/10/21 06:03:39;;;;;;;2.35;0.70;;;;;;;;;;5035178;28;20044;-86
2023/10/21 06:06:05;;;;;;;2.10;0.70;;;13.40;99.90;;;;;;5035125;28;20032;-86
2023/10/21 06:08:32;;;;;;;4.00;0.82;;;;;;;;;;5052933;28;20026;-90
2023/10/21 06:11:00;;;;;;;2.97;1.02;;;13.40;99.90;;;;;;5039026;28;20033;-89
2023/10/21 06:13:26;;;;;;;2.47;0.60;;;;;;;;;;5035646;28;20053;-87
2023/10/21 06:15:52;;;;;;;2.08;0.77;;;13.30;99.90;;;;;;5043717;28;20026;-87
2023/10/21 06:18:19;;;;;;;1.30;0.60;;;14.00;99.90;;;;;;5024863;28;20041;-88
2023/10/21 06:20:54;;;;;;;3.47;0.68;;;15.20;99.90;;;;;;5050302;28;20045;-88
2023/10/21 06:23:20;;;;;;;4.43;0.70;;;;;;;;;;5043563;28;20022;-88
2023/10/21 06:25:48;;;;;;;2.08;0.73;;;13.20;99.90;;;;;;5040235;28;20086;-88
2023/10/21 06:28:14;;;;;;;1.40;0.50;;;15.50;99.90;;;;;;5041445;28;20029;-88
2023/10/21 06:30:55;;;;;;;1.70;0.80;;;14.40;99.90;;;;;;5038527;28;20060;-87
2023/10/21 06:35:56;;;;;;;2.97;0.70;;;;;;;;;;5016818;23;20065;-79
2023/10/21 06:38:22;;;;;;;3.58;0.73;;;;;;;;;;4994653;28;20125;-79
2023/10/21 06:40:48;;;;;;;1.58;0.82;;;13.00;99.90;;;;;;5011333;28;20482;-79
2023/10/21 06:43:14;;;;;;;1.60;0.60;;;;;;;;;;5005557;28;20022;-79
2023/10/21 06:45:40;;;;;;;2.03;0.50;;;;;;;;;;5012031;28;20049;-82
2023/10/21 06:48:06;;;;;;;4.57;0.90;;;13.00;99.90;;;;;;5009947;28;20088;-81
2023/10/21 06:50:35;;;;;;;2.75;0.70;;;13.70;99.90;;;;;;4995383;28;20034;-81
2023/10/21 06:53:14;;;;;;;2.97;0.77;;;10.50;99.90;;;;;;5002932;28;20034;-80
2023/10/21 06:55:42;;;;;;;5.05;0.70;;;13.00;99.90;;;;;;5006419;28;20082;-80
2023/10/21 06:58:08;;;;;;;2.80;1.05;;;;;;;;;;5006648;28;20026;-81
2023/10/21 07:00:41;;;;;;;5.35;0.90;;;13.00;99.90;;;;;;5009930;28;20033;-79
2023/10/21 07:03:49;;;;;;;4.55;1.10;;;14.70;99.90;;;;;;5000976;28;20042;-80
2023/10/21 07:06:25;;;;;;;3.90;0.90;;;13.00;99.90;;;;;;4996703;28;20022;-81
2023/10/21 07:08:52;;;;;;;5.07;1.10;;;12.80;99.90;;;;;;5006764;28;20035;-80
2023/10/21 07:11:20;;;;;;;2.88;0.90;;;12.10;99.90;;;;;;5009106;28;20034;-80
2023/10/21 07:14:08;;;;;;;4.65;1.00;;;13.00;99.90;;;;;;4989959;28;20057;-81
2023/10/21 07:16:34;;;;;;;4.18;1.27;;;13.30;99.90;;;;;;5009612;28;20033;-80
2023/10/21 07:19:00;;;;;;;2.60;0.70;;;12.90;99.90;;;;;;5000463;28;20050;-79
2023/10/21 07:21:26;;;;;;;4.47;0.98;;;;;;;;;;4999745;28;20026;-81
2023/10/21 07:23:51;;;;;;;3.88;1.10;;;13.10;99.90;;;;;;4972069;28;20050;-80
2023/10/21 07:26:18;;;;;;;3.15;0.90;;;13.20;99.90;;;;;;4984659;28;20113;-79
2023/10/21 07:28:48;;;;;;;5.93;0.90;;;13.30;99.90;;;;;;4986174;28;20022;-81
2023/10/21 07:31:15;;;;;;;1.45;0.80;;;;;;;;;;4999895;28;20062;-79
2023/10/21 07:33:52;;;;;;;2.67;1.00;;;13.40;99.90;;;;;;5003879;28;20031;-79
2023/10/21 07:36:19;;;;;;;2.85;0.80;;;;;;;;;;5000312;28;20049;-80
2023/10/21 07:38:49;;;;;;;2.65;0.93;;;13.50;99.90;;;;;;5000875;28;20041;-80
2023/10/21 07:41:16;;;;;;;6.85;0.95;;;13.50;99.90;;;;;;5006079;28;20045;-81
2023/10/21 07:43:49;;;;;;;2.58;0.80;;;13.70;99.90;;;;;;5007090;28;20042;-80
2023/10/21 07:46:15;;;;;;;3.38;0.80;;;14.80;99.90;;;;;;4997947;28;20057;-81
2023/10/21 07:48:47;;;;;;;3.75;0.80;;;13.90;99.90;;;;;;4997358;28;20097;-79
2023/10/21 07:51:24;;;;;;;3.63;0.68;;;13.90;99.90;;;;;;4988709;28;20034;-79
2023/10/21 07:57:22;;;;;;;3.95;0.90;;;13.90;99.90;;;;;;4993310;28;20038;-80
2023/10/21 08:00:16;;;;;;;3.08;0.90;;;14.00;99.90;;;;;;5001080;28;20543;-78
2023/10/21 08:02:46;;;;;;;4.03;1.10;;;12.40;99.90;;;;;;4992651;28;20361;-79
2023/10/21 08:05:13;;;;;;;5.65;1.20;;;;;;;;;;4980619;28;20050;-79
2023/10/21 08:07:44;;;;;;;3.90;1.05;;;14.30;99.90;;;;;;4994549;28;20031;-79
2023/10/21 08:10:10;;;;;;;6.40;1.10;;;14.40;99.90;;;;;;4991139;28;20389;-79
2023/10/21 08:12:36;;;;;;;2.97;0.82;;;14.60;99.90;;;;;;4993281;28;20045;-79
2023/10/21 08:15:08;;;;;;;7.10;1.17;;;14.50;99.90;;;;;;5000687;28;20403;-78
2023/10/21 08:18:11;;;;;;;4.32;0.90;;;14.50;99.90;;;;;;4970644;28;20069;-79
2023/10/21 08:20:42;;;;;;;5.88;0.80;;;;;;;;;;4998588;28;20039;-80
2023/10/21 08:23:08;;;;;;;2.22;0.98;;;;;;;;;;4980114;28;20050;-81
2023/10/21 08:25:34;;;;;;;4.00;0.82;;;;;;;;;;4978429;28;20147;-81
2023/10/21 08:28:23;;;;;;;4.45;1.38;;;14.80;99.90;;;;;;4996449;28;20025;-78
2023/10/21 08:30:51;;;;;;;7.68;1.55;;;;;;;;;;4980298;28;20034;-80
2023/10/21 08:33:17;;;;;;;4.68;0.93;;;;;;;;;;4987785;28;20042;-81
2023/10/21 08:36:15;;;;;;;2.10;0.90;;;14.80;99.90;;;;;;4977889;28;20518;-78
2023/10/21 08:39:16;;;;;;;4.90;1.10;;;15.00;99.90;;;;;;4983848;28;20026;-79
2023/10/21 08:41:43;;;;;;;3.67;1.05;;;;;;;;;;4997055;28;20027;-79
2023/10/21 08:44:41;;;;;;;5.57;1.10;;;15.00;99.90;;;;;;5005930;28;20038;-78
2023/10/21 08:47:44;;;;;;;4.75;1.20;;;15.00;99.90;;;;;;5004777;28;20025;-80
2023/10/21 08:50:14;;;;;;;8.02;1.45;;;15.00;99.90;;;;;;5001777;28;20019;-79
2023/10/21 08:52:50;;;;;;;4.03;0.90;;;15.00;99.90;;;;;;4977176;28;20026;-80
2023/10/21 08:55:20;;;;;;;4.35;0.98;;;15.00;99.90;;;;;;4997221;28;20035;-79
2023/10/21 08:57:48;;;;;;;6.03;1.17;;;;;;;;;;4979323;28;20110;-79
2023/10/21 09:01:05;;;;;;;3.53;1.05;;;14.90;99.90;;;;;;5007682;28;20018;-79
2023/10/21 09:03:32;;;;;;;3.45;0.95;;;14.90;99.90;;;;;;5000547;28;20492;-80
2023/10/21 09:06:11;;;;;;;4.28;1.15;;;15.10;99.90;;;;;;4999632;28;20030;-80
2023/10/21 09:08:41;;;;;;;3.70;1.10;;;15.00;99.90;;;;;;5001206;28;20049;-80
2023/10/21 09:12:05;;;;;;;5.13;1.35;;;15.00;99.90;;;;;;4980357;28;20038;-79
2023/10/21 09:15:12;;;;;;;3.38;1.00;;;15.10;99.90;;;;;;4999609;28;20040;-80
2023/10/21 09:18:40;;;;;;;3.88;1.20;;;15.10;99.90;;;;;;4998666;28;20038;-79
2023/10/21 09:22:01;;;;;;;4.20;1.13;;;15.10;99.90;;;;;;4999483;28;20039;-80
2023/10/21 09:28:28;;;;;;;6.10;1.45;;;15.30;99.90;;;;;;5003225;28;20053;-79
2023/10/21 09:30:58;;;;;;;4.47;1.60;;;15.30;99.90;;;;;;4996531;28;20295;-79
2023/10/21 09:33:55;;;;;;;6.78;1.42;;;15.30;99.90;;;;;;4978606;28;20030;-79
2023/10/21 09:36:21;;;;;;;3.78;1.13;;;15.50;99.90;;;;;;4999680;28;20045;-80
2023/10/21 09:42:37;;;;;;;7.22;1.40;;;15.40;99.90;;;;;;4955828;28;20537;-79
2023/10/21 09:45:27;;;;;;;6.18;1.95;;;15.40;99.90;;;;;;4948675;29;20610;-79
2023/10/21 09:52:15;;;;;;;3.80;1.33;;;15.50;99.90;;;;;;4958331;29;20460;-78
2023/10/21 10:02:20;;;;;;;6.45;1.15;;;15.40;99.90;;;;;;5039769;28;20052;-79
2023/10/21 10:04:47;;;;;;;5.32;1.35;;;15.50;99.90;;;;;;5040233;28;20029;-80
2023/10/21 10:07:30;;;;;;;5.20;1.58;;;16.80;99.90;;;;;;5050494;28;20014;-78
2023/10/21 10:10:13;;;;;;;4.05;1.27;;;15.40;99.90;;;;;;5038356;28;20104;-78
2023/10/21 10:13:14;;;;;;;4.07;1.50;;;15.40;99.90;;;;;;5032748;28;20046;-79
2023/10/21 10:15:41;;;;;;;6.28;1.23;;;15.60;99.90;;;;;;5024824;28;20053;-78
2023/10/21 10:18:25;;;;;;;8.63;1.90;;;15.60;99.90;;;;;;5044725;28;20045;-78
2023/10/21 10:21:04;;;;;;;5.95;1.27;;;15.70;99.90;;;;;;5010425;28;20037;-78
2023/10/21 10:23:57;;;;;;;6.32;1.35;;;15.70;99.90;;;;;;5022878;28;20030;-79
2023/10/21 10:27:09;;;;;;;5.22;1.17;;;15.90;99.90;;;;;;5029295;28;20061;-78
2023/10/21 10:29:39;;;;;;;4.30;1.35;;;16.20;99.90;;;;;;5037088;28;20068;-82
2023/10/21 10:35:02;;;;;;;4.18;1.52;;;16.00;99.90;;;;;;5026084;28;20036;-83
2023/10/21 10:37:36;;;;;;;3.83;1.15;;;16.00;99.90;;;;;;5020978;28;20033;-79
2023/10/21 10:40:18;;;;;;;5.50;1.35;;;16.00;99.90;;;;;;5018623;28;20033;-82
2023/10/21 10:42:45;;;;;;;4.25;1.48;;;16.10;99.90;;;;;;5018582;28;20079;-80
2023/10/21 10:45:11;;;;;;;3.15;1.42;;;16.20;99.90;;;;;;4997654;28;20037;-83
2023/10/21 10:47:39;;;;;;;3.38;1.08;;;16.40;99.90;;;;;;5020808;28;20037;-83
2023/10/21 10:50:12;;;;;;;7.10;2.00;;;16.10;99.90;;;;;;5023660;28;20498;-79
2023/10/21 10:52:38;;;;;;;5.75;1.75;;;16.70;99.90;;;;;;5021622;28;20057;-81
2023/10/21 10:55:08;;;;;;;3.28;1.00;;;16.60;99.90;;;;;;5024397;28;20551;-81
2023/10/21 10:57:34;;;;;;;3.75;1.20;;;16.40;99.90;;;;;;5022925;28;20041;-79
2023/10/21 11:00:00;;;;;;;3.47;1.15;;;17.30;99.90;;;;;;5018043;28;20185;-81
2023/10/21 11:02:28;;;;;;;9.15;1.38;;;16.80;99.90;;;;;;5023644;28;20030;-80
2023/10/21 11:04:59;;;;;;;4.65;1.10;;;16.20;99.90;;;;;;5024892;28;20037;-80
2023/10/21 11:07:30;;;;;;;6.22;1.13;;;16.10;99.90;;;;;;5020369;28;20156;-80
2023/10/21 11:10:00;;;;;;;4.90;1.20;;;16.00;99.90;;;;;;5024724;28;20132;-79
2023/10/21 11:12:27;;;;;;;3.17;1.30;;;16.00;99.90;;;;;;5021564;28;20044;-84
2023/10/21 11:14:53;;;;;;;3.55;1.25;;;16.40;99.90;;;;;;5028402;28;20537;-81
2023/10/21 11:17:19;;;;;;;5.88;1.38;;;16.40;99.90;;;;;;5030762;28;20036;-81
2023/10/21 11:19:45;;;;;;;6.50;1.20;;;16.50;99.90;;;;;;5032075;28;20095;-82
2023/10/21 11:22:26;;;;;;;6.95;1.17;;;16.70;99.90;;;;;;5032440;28;20029;-82
2023/10/21 11:24:53;;;;;;;6.22;1.42;;;16.90;99.90;;;;;;5031511;28;20026;-80
2023/10/21 11:27:18;;;;;;;4.90;1.20;;;17.00;99.90;;;;;;5031520;28;20038;-79
2023/10/21 11:29:45;;;;;;;4.82;1.13;;;17.10;99.90;;;;;;5034036;28;20044;-79
2023/10/21 11:32:12;;;;;;;4.95;1.20;;;17.20;99.90;;;;;;5036735;28;20045;-81
2023/10/21 11:34:37;;;;;;;4.63;1.33;;;17.30;99.90;;;;;;5041377;28;20056;-84
2023/10/21 11:37:04;;;;;;;4.75;1.05;;;17.40;99.90;;;;;;5044447;28;20040;-82
2023/10/21 11:39:31;;;;;;;4.40;1.15;;;17.40;99.90;;;;;;5041694;28;20025;-87
2023/10/21 11:41:57;;;;;;;7.93;1.70;;;17.50;99.90;;;;;;5029899;28;20093;-84
2023/10/21 11:44:27;;;;;;;6.03;1.00;;;17.50;99.90;;;;;;5028782;28;20037;-82
2023/10/21 11:46:57;;;;;;;;;;;17.50;99.90;;;;;;5029779;28;20029;-81
2023/10/21 11:49:23;;;;;;;5.03;1.60;;;17.40;99.90;;;;;;5009758;28;19996;-81
2023/10/21 11:51:54;;;;;;;5.22;1.35;;;16.70;99.90;;;;;;5024708;28;20311;-81
2023/10/21 11:54:46;;;;;;;5.40;1.30;;;17.10;99.90;;;;;;5025929;28;20025;-80
2023/10/21 12:24:45;;;;;;;5.35;1.40;;;16.90;99.90;;;;;;5023995;28;20426;-81
2023/10/21 12:40:32;;;;;;;6.13;1.40;;;16.80;99.90;;;;;;5035906;28;20033;-84
2023/10/21 12:45:47;;;;;;;5.68;1.20;;;16.90;99.90;;;;;;5026869;28;20483;-81
2023/10/21 12:48:17;;;;;;;5.63;1.52;;;16.90;99.90;;;;;;5031768;28;20061;-82
2023/10/21 12:50:43;;;;;;;4.00;1.20;;;16.90;99.90;;;;;;5024177;28;20041;-80
2023/10/21 12:53:09;;;;;;;3.03;1.02;;;17.00;99.90;;;;;;5030472;28;20060;-81
2023/10/21 12:55:35;;;;;;;6.10;1.30;;;16.40;99.90;;;;;;5039095;28;20026;-79
2023/10/21 12:58:02;;;;;;;8.40;1.25;;;18.00;99.90;;;;;;5028192;28;20025;-80
2023/10/21 13:00:29;;;;;;;6.78;1.40;;;17.40;99.90;;;;;;5033689;28;20026;-85
2023/10/21 13:02:55;;;;;;;7.05;2.28;;;;;;;;;;5031589;28;20068;-82
2023/10/21 13:05:20;;;;;;;6.53;2.08;;;17.40;99.90;;;;;;5026592;28;20033;-80
2023/10/21 13:07:46;;;;;;;6.80;2.33;;;18.60;99.90;;;;;;5034418;28;20026;-81
2023/10/21 13:10:13;;;;;;;7.68;1.10;;;17.20;99.90;;;;;;5026870;28;20030;-80
2023/10/21 13:12:39;;;;;;;6.50;1.30;;;17.30;99.90;;;;;;5029167;28;20037;-79
2023/10/21 13:15:11;;;;;;;3.42;1.00;;;17.30;99.90;;;;;;5021816;28;20033;-81
2023/10/21 13:17:38;;;;;;;4.22;0.98;;;17.30;99.90;;;;;;5026101;28;20558;-81
2023/10/21 13:20:05;;;;;;;6.53;1.42;;;17.30;99.90;;;;;;5026443;28;20829;-81
2023/10/21 13:22:33;;;;;;;1.60;0.80;;;17.20;99.90;;;;;;5029369;28;20402;-80
2023/10/21 13:25:07;;;;;;;3.35;1.15;;;17.10;99.90;;;;;;5019648;28;20029;-84
2023/10/21 13:27:33;;;;;;;2.90;0.88;;;17.20;99.90;;;;;;5027429;28;20116;-81
2023/10/21 13:29:58;;;;;;;3.30;1.10;;;17.30;99.90;;;;;;5028871;28;20052;-83
2023/10/21 13:32:25;;;;;;;4.55;1.17;;;17.60;99.90;;;;;;5017580;28;20068;-82
2023/10/21 13:34:51;;;;;;;4.03;1.05;;;17.30;99.90;;;;;;5029542;28;20025;-79
2023/10/21 13:37:20;;;;;;;3.95;0.90;;;17.20;99.90;;;;;;5028839;28;20029;-80
2023/10/21 13:39:46;;;;;;;6.75;1.13;;;17.10;99.90;;;;;;5029127;28;20629;-82
2023/10/21 13:42:12;;;;;;;4.35;1.23;;;17.10;99.90;;;;;;5021862;28;20128;-81
2023/10/21 13:44:38;;;;;;;4.18;1.20;;;17.30;99.90;;;;;;5044439;28;20068;-82
2023/10/21 13:47:08;;;;;;;5.70;1.17;;;17.20;99.90;;;;;;5031670;28;20424;-82
2023/10/21 13:49:42;;;;;;;6.18;1.05;;;17.20;99.90;;;;;;5041734;28;20026;-82
2023/10/21 13:52:08;;;;;;;3.60;1.33;;;17.20;99.90;;;;;;5042232;28;20089;-81
2023/10/21 13:54:34;;;;;;;2.58;0.98;;;17.10;99.90;;;;;;5049190;28;20032;-80
2023/10/21 13:57:03;;;;;;;3.60;1.02;;;17.50;99.90;;;;;;5041594;28;20073;-85
2023/10/21 13:59:29;;;;;;;4.20;1.10;;;17.20;99.90;;;;;;5042302;28;20049;-83
2023/10/21 14:01:55;;;;;;;5.63;0.98;;;18.00;99.90;;;;;;5043846;28;20045;-85
2023/10/21 14:04:20;;;;;;;5.22;1.20;;;17.60;99.90;;;;;;5045536;28;20022;-85
2023/10/21 14:06:46;;;;;;;5.57;1.40;;;18.10;99.90;;;;;;5045480;28;20028;-83
2023/10/21 14:09:22;;;;;;;6.03;1.42;;;17.30;99.90;;;;;;5044450;28;20025;-83
2023/10/21 14:11:48;;;;;;;4.82;0.98;;;17.20;99.90;;;;;;5043379;28;20037;-80
2023/10/21 14:14:14;;;;;;;4.43;1.10;;;17.20;99.90;;;;;;5045912;28;20029;-82
2023/10/21 14:16:40;;;;;;;6.25;1.27;;;17.10;99.90;;;;;;5042196;28;20056;-84
2023/10/21 14:19:08;;;;;;;3.78;1.20;;;17.20;99.90;;;;;;5044517;28;20010;-83
2023/10/21 14:21:34;;;;;;;5.35;1.05;;;17.10;99.90;;;;;;5041621;28;20038;-80
2023/10/21 14:24:00;;;;;;;5.60;1.33;;;17.20;99.90;;;;;;5039095;28;20021;-82
2023/10/21 14:26:28;;;;;;;3.58;1.10;;;17.10;99.90;;;;;;5029792;28;20030;-81
2023/10/21 14:28:55;;;;;;;4.32;1.20;;;17.00;99.90;;;;;;5032855;28;20080;-81
2023/10/21 14:31:30;;;;;;;5.40;1.10;;;17.00;99.90;;;;;;5030352;28;20034;-81
2023/10/21 14:33:56;;;;;;;5.25;1.50;;;17.00;99.90;;;;;;5031132;28;20474;-81
2023/10/21 14:36:22;;;;;;;6.00;1.10;;;17.00;99.90;;;;;;5032119;28;20116;-82
2023/10/21 14:38:50;;;;;;;4.25;1.02;;;17.00;99.90;;;;;;5026465;28;20029;-82
2023/10/21 14:41:15;;;;;;;3.65;1.00;;;16.90;99.90;;;;;;5029216;28;20034;-81
2023/10/21 14:43:42;;;;;;;4.15;1.20;;;16.90;99.90;;;;;;5034539;28;20080;-81
2023/10/21 14:46:09;;;;;;;3.85;1.23;;;16.90;99.90;;;;;;5028132;28;20040;-80
2023/10/21 14:48:35;;;;;;;7.38;1.45;;;16.90;99.90;;;;;;5027852;28;20111;-82
2023/10/21 14:51:01;;;;;;;4.65;1.10;;;16.90;99.90;;;;;;5027240;28;20044;-83
2023/10/21 14:53:27;;;;;;;6.10;1.00;;;16.90;99.90;;;;;;5033150;28;20648;-81
2023/10/21 14:55:53;;;;;;;2.20;1.05;;;;;;;;;;5032942;28;20025;-81
2023/10/21 14:58:31;;;;;;;4.38;1.10;;;16.90;99.90;;;;;;5012259;28;20026;-79
2023/10/21 15:00:57;;;;;;;4.68;1.10;;;16.90;99.90;;;;;;5031095;28;20037;-81